Time,TemperatureF,DewpointF,PressureIn,WindDirection,WindDirectionDegrees,WindSpeedMPH,WindSpeedGustMPH,Humidity,HourlyPrecipIn,Conditions,Clouds,dailyrainin,SoftwareType,DateUTC
2013-10-03 00:06:00,60.0,-99.9,-100.00,NNW,330,3.0,3.0,-999,0.00,,,-99.99,,2013-10-03 04:06:00,
2013-10-03 00:14:00,60.0,-99.9,-100.00,NNW,330,3.0,3.0,-999,0.00,,,-99.99,,2013-10-03 04:14:00,
2013-10-03 00:44:00,57.0,-99.9,-100.00,NNW,340,2.0,3.0,-999,0.00,,,-99.99,,2013-10-03 04:44:00,
2013-10-03 00:53:00,57.0,-99.9,-100.00,NNW,340,2.0,3.0,-999,0.00,,,-99.99,,2013-10-03 04:53:00,
2013-10-03 01:04:00,57.0,-99.9,-100.00,NNW,340,2.0,3.0,-999,0.00,,,-99.99,,2013-10-03 05:04:00,
2013-10-03 01:13:00,57.0,-99.9,-100.00,NNW,340,2.0,3.0,-999,0.00,,,-99.99,,2013-10-03 05:13:00,
2013-10-03 01:52:00,56.0,-99.9,-100.00,NNW,338,0.0,0.0,-999,-99.99,,,-99.99,,2013-10-03 05:52:00,
2013-10-03 02:02:00,56.0,-99.9,-100.00,NNW,338,0.0,0.0,-999,-99.99,,,-99.99,,2013-10-03 06:02:00,
2013-10-03 02:12:00,56.0,-99.9,-100.00,NNW,338,0.0,0.0,-999,-99.99,,,-99.99,,2013-10-03 06:12:00,
2013-10-03 02:52:00,56.0,-99.9,-100.00,NNW,346,3.0,5.0,-999,0.00,,,-99.99,,2013-10-03 06:52:00,
2013-10-03 03:02:00,56.0,-99.9,-100.00,NNW,346,3.0,5.0,-999,0.00,,,-99.99,,2013-10-03 07:02:00,
2013-10-03 03:12:00,56.0,-99.9,-100.00,NNW,346,3.0,5.0,-999,0.00,,,-99.99,,2013-10-03 07:12:00,
2013-10-03 03:42:00,61.0,-99.9,-100.00,North,359,5.0,6.0,-999,0.00,,,-99.99,,2013-10-03 07:42:00,
2013-10-03 03:52:00,61.0,-99.9,-100.00,North,359,5.0,6.0,-999,0.00,,,-99.99,,2013-10-03 07:52:00,
2013-10-03 04:03:00,61.0,-99.9,-100.00,North,359,5.0,6.0,-999,0.00,,,-99.99,,2013-10-03 08:03:00,
2013-10-03 04:12:00,61.0,-99.9,-100.00,North,359,5.0,6.0,-999,0.00,,,-99.99,,2013-10-03 08:12:00,
2013-10-03 04:42:00,56.0,-99.9,-100.00,NNW,331,0.0,2.0,-999,0.00,,,-99.99,,2013-10-03 08:42:00,
2013-10-03 04:52:00,56.0,-99.9,-100.00,NNW,331,0.0,2.0,-999,0.00,,,-99.99,,2013-10-03 08:52:00,
2013-10-03 05:02:00,56.0,-99.9,-100.00,NNW,331,0.0,2.0,-999,0.00,,,-99.99,,2013-10-03 09:02:00,
2013-10-03 05:12:00,56.0,-99.9,-100.00,NNW,331,0.0,2.0,-999,0.00,,,-99.99,,2013-10-03 09:12:00,
2013-10-03 05:43:00,59.0,-99.9,-100.00,NNW,348,3.0,5.0,-999,-99.99,,,-99.99,,2013-10-03 09:43:00,
2013-10-03 05:53:00,59.0,-99.9,-100.00,NNW,348,3.0,5.0,-999,-99.99,,,-99.99,,2013-10-03 09:53:00,
2013-10-03 06:03:00,59.0,-99.9,-100.00,NNW,348,3.0,5.0,-999,-99.99,,,-99.99,,2013-10-03 10:03:00,
2013-10-03 06:13:00,59.0,-99.9,-100.00,NNW,348,3.0,5.0,-999,-99.99,,,-99.99,,2013-10-03 10:13:00,
2013-10-03 08:42:00,64.0,-99.9,-100.00,North,350,3.0,5.0,-999,0.00,,,-99.99,,2013-10-03 12:42:00,
2013-10-03 08:52:00,64.0,-99.9,-100.00,North,350,3.0,5.0,-999,0.00,,,-99.99,,2013-10-03 12:52:00,
2013-10-03 09:02:00,64.0,-99.9,-100.00,North,350,3.0,5.0,-999,0.00,,,-99.99,,2013-10-03 13:02:00,
2013-10-03 09:11:00,64.0,-99.9,-100.00,North,350,3.0,5.0,-999,0.00,,,-99.99,,2013-10-03 13:11:00,
2013-10-03 09:52:00,68.0,-99.9,-100.00,NNW,341,6.0,9.0,-999,0.00,,,-99.99,,2013-10-03 13:52:00,
2013-10-03 10:02:00,68.0,-99.9,-100.00,NNW,341,6.0,9.0,-999,0.00,,,-99.99,,2013-10-03 14:02:00,
2013-10-03 10:11:00,68.0,-99.9,-100.00,NNW,341,6.0,9.0,-999,0.00,,,-99.99,,2013-10-03 14:11:00,
2013-10-03 10:42:00,69.0,-99.9,-100.00,NW,316,6.0,9.0,-999,0.00,,,-99.99,,2013-10-03 14:42:00,
2013-10-03 10:52:00,69.0,-99.9,-100.00,NW,316,6.0,9.0,-999,0.00,,,-99.99,,2013-10-03 14:52:00,
2013-10-03 11:01:00,69.0,-99.9,-100.00,NW,316,6.0,9.0,-999,0.00,,,-99.99,,2013-10-03 15:01:00,
2013-10-03 11:11:00,69.0,-99.9,-100.00,NW,316,6.0,9.0,-999,0.00,,,-99.99,,2013-10-03 15:11:00,
2013-10-03 11:43:00,72.0,-99.9,-100.00,NW,324,3.0,8.0,-999,0.00,,,-99.99,,2013-10-03 15:43:00,
2013-10-03 11:54:00,72.0,-99.9,-100.00,NW,324,3.0,8.0,-999,0.00,,,-99.99,,2013-10-03 15:54:00,
2013-10-03 12:04:00,72.0,-99.9,-100.00,NW,324,3.0,8.0,-999,0.00,,,-99.99,,2013-10-03 16:04:00,
2013-10-03 12:13:00,72.0,-99.9,-100.00,NW,324,3.0,8.0,-999,0.00,,,-99.99,,2013-10-03 16:13:00,
2013-10-03 12:43:00,73.0,-99.9,-100.00,NNW,330,6.0,11.0,-999,0.00,,,-99.99,,2013-10-03 16:43:00,
2013-10-03 12:53:00,73.0,-99.9,-100.00,NNW,330,6.0,11.0,-999,0.00,,,-99.99,,2013-10-03 16:53:00,
2013-10-03 13:03:00,73.0,-99.9,-100.00,NNW,330,6.0,11.0,-999,0.00,,,-99.99,,2013-10-03 17:03:00,
2013-10-03 13:12:00,73.0,-99.9,-100.00,NNW,330,6.0,11.0,-999,0.00,,,-99.99,,2013-10-03 17:12:00,
2013-10-03 13:42:00,74.0,-99.9,-100.00,NNE,18,5.0,9.0,-999,0.00,,,-99.99,,2013-10-03 17:42:00,
2013-10-03 13:52:00,74.0,-99.9,-100.00,NNE,18,5.0,9.0,-999,0.00,,,-99.99,,2013-10-03 17:52:00,
2013-10-03 14:02:00,74.0,-99.9,-100.00,NNE,18,5.0,9.0,-999,0.00,,,-99.99,,2013-10-03 18:02:00,
2013-10-03 14:12:00,74.0,-99.9,-100.00,NNE,18,5.0,9.0,-999,0.00,,,-99.99,,2013-10-03 18:12:00,
2013-10-03 14:52:00,75.0,-99.9,-100.00,WNW,284,5.0,8.0,-999,-99.99,,,-99.99,,2013-10-03 18:52:00,
2013-10-03 15:01:00,75.0,-99.9,-100.00,WNW,284,5.0,8.0,-999,-99.99,,,-99.99,,2013-10-03 19:01:00,
2013-10-03 15:11:00,75.0,-99.9,-100.00,WNW,284,5.0,8.0,-999,-99.99,,,-99.99,,2013-10-03 19:11:00,
2013-10-03 15:42:00,74.0,-99.9,-100.00,West,259,5.0,7.0,-999,-99.99,,,-99.99,,2013-10-03 19:42:00,
2013-10-03 15:53:00,74.0,-99.9,-100.00,West,259,5.0,7.0,-999,-99.99,,,-99.99,,2013-10-03 19:53:00,
2013-10-03 16:02:00,74.0,-99.9,-100.00,West,259,5.0,7.0,-999,-99.99,,,-99.99,,2013-10-03 20:02:00,
2013-10-03 16:12:00,74.0,-99.9,-100.00,West,259,5.0,7.0,-999,-99.99,,,-99.99,,2013-10-03 20:12:00,
2013-10-03 16:42:00,73.0,-99.9,-100.00,West,277,5.0,6.0,-999,-99.99,,,-99.99,,2013-10-03 20:42:00,
2013-10-03 16:52:00,73.0,-99.9,-100.00,West,277,5.0,6.0,-999,-99.99,,,-99.99,,2013-10-03 20:52:00,
2013-10-03 17:02:00,73.0,-99.9,-100.00,West,277,5.0,6.0,-999,-99.99,,,-99.99,,2013-10-03 21:02:00,
2013-10-03 17:12:00,73.0,-99.9,-100.00,West,277,5.0,6.0,-999,-99.99,,,-99.99,,2013-10-03 21:12:00,
2013-10-03 17:54:00,70.0,-99.9,-100.00,SW,219,6.0,8.0,-999,-99.99,,,-99.99,,2013-10-03 21:54:00,
2013-10-03 18:04:00,70.0,-99.9,-100.00,SW,219,6.0,8.0,-999,-99.99,,,-99.99,,2013-10-03 22:04:00,
2013-10-03 18:13:00,70.0,-99.9,-100.00,SW,219,6.0,8.0,-999,-99.99,,,-99.99,,2013-10-03 22:13:00,
2013-10-03 18:54:00,66.0,-99.9,-100.00,SW,233,3.0,4.0,-999,-99.99,,,-99.99,,2013-10-03 22:54:00,
2013-10-03 19:03:00,66.0,-99.9,-100.00,SW,233,3.0,4.0,-999,-99.99,,,-99.99,,2013-10-03 23:03:00,
2013-10-03 19:12:00,66.0,-99.9,-100.00,SW,233,3.0,4.0,-999,-99.99,,,-99.99,,2013-10-03 23:12:00,
2013-10-03 19:53:00,62.0,-99.9,-100.00,SW,221,2.0,3.0,-999,-99.99,,,-99.99,,2013-10-03 23:53:00,
2013-10-03 20:02:00,62.0,-99.9,-100.00,SW,221,2.0,3.0,-999,-99.99,,,-99.99,,2013-10-04 00:02:00,
2013-10-03 20:12:00,62.0,-99.9,-100.00,SW,221,2.0,3.0,-999,-99.99,,,-99.99,,2013-10-04 00:12:00,
2013-10-03 20:42:00,61.0,-99.9,-100.00,SW,227,3.0,3.0,-999,-99.99,,,-99.99,,2013-10-04 00:42:00,
2013-10-03 20:52:00,61.0,-99.9,-100.00,SW,227,3.0,3.0,-999,-99.99,,,-99.99,,2013-10-04 00:52:00,
2013-10-03 21:02:00,61.0,-99.9,-100.00,SW,227,3.0,3.0,-999,-99.99,,,-99.99,,2013-10-04 01:02:00,
2013-10-03 21:12:00,61.0,-99.9,-100.00,SW,227,3.0,3.0,-999,-99.99,,,-99.99,,2013-10-04 01:12:00,
2013-10-03 22:12:00,57.0,-99.9,-100.00,SW,226,0.0,0.0,-999,0.00,,,-99.99,,2013-10-04 02:12:00,
2013-10-03 23:12:00,55.0,-99.9,-100.00,SW,226,0.0,0.0,-999,-99.99,,,-99.99,,2013-10-04 03:12:00,